Terminal Aerodrome Forecast
Issued by NWS

Home | Current Version | Previous Version | Text Only | Print | Product List | Glossary Off
Versions: 1 2 3 4 5 6 7 8 9 10 11 12 13 14 15 16 17 18 19 20 21 22 23 24 25 26

000
FTUS43 KBIS 251500 AAA
TAFMOT
TAF AMD
KMOT 251515Z 2515/2612 12010KT P6SM OVC015
     FM251600 12009KT 4SM -SN OVC012
     FM251800 VRB06KT 3/4SM -SN OVC007
     FM252300 01018G24KT 3SM -SN OVC012
     FM260600 34010KT P6SM OVC008=

USA.gov is the U.S. government's official web portal to all federal, state and local government web resources and services.